Time;durP1;ratioP1;P1;durP2;ratioP2;P2;SDS_P1;SDS_P2;PMS_P1;PMS_P2;Temp;Humidity;BMP_temperature;BMP_pressure;BME280_temperature;BME280_humidity;BME280_pressure;Samples;Min_cycle;Max_cycle;Signal;HPM_P1;HPM_P2
2021/05/26 00:00:25;;;;;;;4.00;1.73;;;;;;;10.27;98.81;100864.09;5049619;28;20036;-74
2021/05/26 00:02:51;;;;;;;8.10;3.08;;;;;;;10.24;98.73;100864.28;5041308;28;20040;-74
2021/05/26 00:05:16;;;;;;;3.63;2.30;;;;;;;10.32;98.20;100861.97;5064484;28;20041;-74
2021/05/26 00:07:42;;;;;;;3.90;2.00;;;;;;;10.32;98.53;100872.72;5066212;28;20032;-75
2021/05/26 00:10:08;;;;;;;3.90;2.00;;;;;;;10.34;98.79;100860.06;5069855;28;20038;-74
2021/05/26 00:12:34;;;;;;;6.97;2.78;;;;;;;10.37;98.97;100859.88;5070986;28;20036;-74
2021/05/26 00:14:59;;;;;;;3.53;1.92;;;;;;;10.22;99.48;100857.28;5066881;28;20029;-74
2021/05/26 00:17:25;;;;;;;5.13;2.05;;;;;;;10.29;99.58;100853.25;5060554;28;20404;-74
2021/05/26 00:19:50;;;;;;;7.90;2.10;;;;;;;10.29;99.66;100850.59;5062479;28;20115;-74
2021/05/26 00:22:16;;;;;;;8.55;2.10;;;;;;;10.25;100.00;100847.22;5068948;28;20043;-74
2021/05/26 00:24:41;;;;;;;6.25;2.10;;;;;;;10.18;100.00;100840.50;5066193;28;20036;-74
2021/05/26 00:27:07;;;;;;;6.80;2.53;;;;;;;10.17;100.00;100846.84;5039380;28;20039;-74
2021/05/26 00:29:32;;;;;;;5.60;2.33;;;;;;;10.15;100.00;100843.34;5055611;28;20060;-74
2021/05/26 00:31:58;;;;;;;8.10;2.78;;;;;;;10.31;99.90;100849.50;5057646;28;20059;-74
2021/05/26 00:34:24;;;;;;;8.15;3.28;;;;;;;10.21;100.00;100840.31;5066314;28;20025;-74
2021/05/26 00:36:49;;;;;;;9.27;2.95;;;;;;;10.17;100.00;100845.97;5070781;28;20056;-74
2021/05/26 00:39:15;;;;;;;8.48;2.60;;;;;;;10.10;100.00;100840.94;5072046;28;20089;-74
2021/05/26 00:41:40;;;;;;;8.90;2.78;;;;;;;10.16;100.00;100839.69;5055951;28;20816;-74
2021/05/26 00:44:06;;;;;;;4.97;2.72;;;;;;;10.16;100.00;100839.69;5069107;28;20123;-74
2021/05/26 00:46:40;;;;;;;9.30;2.70;;;;;;;10.17;100.00;100832.56;5060478;28;20495;-74
2021/05/26 00:49:05;;;;;;;6.82;2.83;;;;;;;10.08;100.00;100831.25;5030497;28;20111;-74
2021/05/26 00:51:31;;;;;;;8.98;3.28;;;;;;;10.06;100.00;100834.00;5028171;28;20116;-74
2021/05/26 00:53:57;;;;;;;9.80;3.35;;;;;;;10.12;100.00;100832.81;5045390;28;20139;-73
2021/05/26 00:56:22;;;;;;;11.95;2.90;;;;;;;10.14;100.00;100820.16;5029759;28;20033;-74
2021/05/26 00:58:48;;;;;;;10.05;3.53;;;;;;;10.03;100.00;100827.97;5038397;28;20642;-74
2021/05/26 01:01:14;;;;;;;8.27;2.50;;;;;;;10.00;100.00;100822.78;5028865;28;20029;-73
2021/05/26 01:03:39;;;;;;;9.38;3.00;;;;;;;9.98;100.00;100825.59;5022737;28;20041;-73
2021/05/26 01:06:06;;;;;;;14.30;3.30;;;;;;;9.96;100.00;100811.41;5043785;28;20564;-74
2021/05/26 01:08:32;;;;;;;8.40;3.08;;;;;;;10.06;100.00;100814.41;5010156;28;21366;-73
2021/05/26 01:10:57;;;;;;;17.23;3.88;;;;;;;10.07;100.00;100813.41;5021892;28;20032;-73
2021/05/26 01:13:27;;;;;;;16.33;4.00;;;;;;;10.07;100.00;100805.38;5029165;28;20071;-73
2021/05/26 01:15:53;;;;;;;17.23;3.70;;;;;;;10.00;100.00;100801.34;5042714;28;20064;-73
2021/05/26 01:18:28;;;;;;;9.30;3.30;;;;;;;9.96;100.00;100799.81;5011809;28;20647;-74
2021/05/26 01:21:07;;;;;;;19.33;3.50;;;;;;;9.95;100.00;100798.06;5044866;28;20089;-73
2021/05/26 01:23:34;;;;;;;10.73;2.97;;;;;;;9.91;100.00;100809.94;5042132;28;20119;-73
2021/05/26 01:26:03;;;;;;;11.23;3.53;;;;;;;9.88;100.00;100796.72;5027259;28;20060;-73
2021/05/26 01:28:31;;;;;;;13.32;4.05;;;;;;;10.03;100.00;100793.13;5031402;28;20029;-74
2021/05/26 01:30:58;;;;;;;18.50;3.45;;;;;;;9.90;100.00;100794.81;5022190;28;20084;-73
2021/05/26 01:33:27;;;;;;;11.50;3.35;;;;;;;9.87;100.00;100781.63;5028026;28;20033;-72
2021/05/26 01:35:53;;;;;;;11.32;3.50;;;;;;;9.83;100.00;100783.59;5024247;28;20097;-74
2021/05/26 01:38:27;;;;;;;12.90;3.83;;;;;;;9.85;100.00;100783.50;5029231;28;20460;-73
2021/05/26 01:40:58;;;;;;;12.57;3.03;;;;;;;9.92;100.00;100784.88;5032239;28;20037;-74
2021/05/26 01:43:26;;;;;;;13.68;3.53;;;;;;;9.88;100.00;100781.50;5044674;28;20087;-73
2021/05/26 01:45:51;;;;;;;10.63;3.53;;;;;;;9.79;100.00;100774.03;5045038;28;20481;-74
2021/05/26 01:48:18;;;;;;;9.73;4.30;;;;;;;9.72;100.00;100773.53;5023421;28;20425;-73
2021/05/26 01:50:44;;;;;;;10.77;3.25;;;;;;;9.68;100.00;100769.31;5043312;28;20053;-74
2021/05/26 01:53:10;;;;;;;12.40;3.63;;;;;;;9.79;100.00;100770.47;5058400;28;20044;-73
2021/05/26 01:55:38;;;;;;;14.98;3.38;;;;;;;9.81;100.00;100772.13;5055462;28;20425;-74
2021/05/26 01:58:07;;;;;;;21.30;4.32;;;;;;;9.71;100.00;100769.13;5036244;28;20036;-73
2021/05/26 02:00:44;;;;;;;11.32;3.63;;;;;;;9.75;100.00;100770.66;5033167;28;20037;-74
2021/05/26 02:03:11;;;;;;;15.38;4.07;;;;;;;9.85;100.00;100770.97;5059018;28;20067;-74
2021/05/26 02:05:38;;;;;;;13.73;3.70;;;;;;;9.75;100.00;100765.28;5034318;28;20032;-74
2021/05/26 02:08:04;;;;;;;15.90;3.85;;;;;;;9.87;100.00;100763.72;5037491;28;20032;-74
2021/05/26 02:13:14;;;;;;;12.75;4.38;;;;;;;9.83;100.00;100769.31;5046637;28;20032;-72
2021/05/26 02:15:40;;;;;;;20.65;5.72;;;;;;;9.76;100.00;100766.16;5056502;28;20694;-72
2021/05/26 02:18:06;;;;;;;16.08;3.40;;;;;;;9.89;100.00;100760.91;5048231;28;20044;-73
2021/05/26 02:20:32;;;;;;;26.48;4.20;;;;;;;9.84;100.00;100763.88;5055882;28;20054;-74
2021/05/26 02:22:58;;;;;;;20.17;4.47;;;;;;;9.83;100.00;100758.59;5052119;28;20064;-74
2021/05/26 02:25:23;;;;;;;17.60;3.53;;;;;;;9.91;100.00;100753.66;5059632;28;20029;-73
2021/05/26 02:27:49;;;;;;;16.58;4.38;;;;;;;9.92;100.00;100756.25;5025646;28;20040;-73
2021/05/26 02:30:22;;;;;;;12.63;3.97;;;;;;;9.78;100.00;100752.66;5059237;28;20656;-73
2021/05/26 02:32:47;;;;;;;16.60;3.65;;;;;;;9.87;100.00;100746.75;5050996;28;20037;-73
2021/05/26 02:35:14;;;;;;;13.60;3.53;;;;;;;9.91;100.00;100759.00;5034721;28;20131;-73
2021/05/26 02:37:40;;;;;;;17.90;4.07;;;;;;;9.94;100.00;100745.41;5053441;28;20544;-74
2021/05/26 02:40:07;;;;;;;7.88;2.85;;;;;;;9.86;100.00;100750.38;5055759;28;20036;-74
2021/05/26 02:42:33;;;;;;;17.75;3.85;;;;;;;9.80;100.00;100745.41;5054136;28;20075;-73
2021/05/26 02:44:59;;;;;;;18.65;3.53;;;;;;;9.83;100.00;100740.69;5054606;28;20218;-73
2021/05/26 02:47:26;;;;;;;16.55;3.95;;;;;;;9.78;100.00;100742.81;5031736;28;20028;-73
2021/05/26 02:49:52;;;;;;;14.32;4.07;;;;;;;9.86;100.00;100739.66;5066418;28;20676;-73
2021/05/26 02:52:17;;;;;;;13.88;3.85;;;;;;;9.84;100.00;100736.22;5053071;28;20416;-73
2021/05/26 02:54:43;;;;;;;15.00;2.90;;;;;;;9.78;100.00;100731.22;5040104;28;20148;-73
2021/05/26 02:57:09;;;;;;;15.95;3.42;;;;;;;9.73;100.00;100729.69;5041662;28;20028;-74
2021/05/26 02:59:53;;;;;;;14.55;3.53;;;;;;;9.65;100.00;100723.91;5051235;28;20052;-73
2021/05/26 03:02:42;;;;;;;15.23;4.20;;;;;;;9.73;100.00;100729.69;5065294;28;20037;-74
2021/05/26 03:05:12;;;;;;;9.48;3.20;;;;;;;9.75;100.00;100727.75;5044738;28;20055;-72
2021/05/26 03:07:40;;;;;;;16.98;3.35;;;;;;;9.58;100.00;100733.28;5065948;28;20059;-73
2021/05/26 03:10:08;;;;;;;11.45;3.15;;;;;;;9.52;100.00;100725.59;5042798;28;20039;-73
2021/05/26 03:12:37;;;;;;;16.40;3.35;;;;;;;9.52;100.00;100720.25;5051735;28;20029;-73
2021/05/26 03:15:08;;;;;;;17.15;3.42;;;;;;;9.61;100.00;100724.22;5043099;28;20028;-74
2021/05/26 03:17:34;;;;;;;11.60;3.63;;;;;;;9.66;100.00;100722.09;5047923;28;20031;-74
2021/05/26 03:20:12;;;;;;;13.20;3.03;;;;;;;9.51;100.00;100717.66;5049327;28;20047;-74
2021/05/26 03:23:06;;;;;;;13.15;3.50;;;;;;;9.61;100.00;100726.88;5042864;28;20031;-72
2021/05/26 03:25:54;;;;;;;12.60;3.45;;;;;;;9.57;100.00;100725.31;5033712;28;20036;-73
2021/05/26 03:28:20;;;;;;;12.40;3.05;;;;;;;9.55;100.00;100720.09;5032489;28;20374;-74
2021/05/26 03:30:46;;;;;;;14.00;3.25;;;;;;;9.53;100.00;100727.34;5053932;28;20563;-73
2021/05/26 03:33:13;;;;;;;18.35;3.13;;;;;;;9.62;100.00;100715.22;5037834;28;20029;-74
2021/05/26 03:35:42;;;;;;;8.55;3.30;;;;;;;9.59;100.00;100718.94;5023133;28;20129;-73
2021/05/26 03:38:09;;;;;;;14.90;3.05;;;;;;;9.57;100.00;100710.13;5048546;28;20028;-73
2021/05/26 03:40:49;;;;;;;13.85;3.85;;;;;;;9.50;100.00;100713.28;5053284;28;20681;-74
2021/05/26 03:43:15;;;;;;;7.28;3.20;;;;;;;9.54;100.00;100715.69;5048800;28;20017;-74
2021/05/26 03:45:41;;;;;;;7.78;2.58;;;;;;;9.54;100.00;100713.00;5066753;28;20103;-73
2021/05/26 03:48:10;;;;;;;18.25;3.80;;;;;;;9.65;100.00;100706.97;5058070;28;20033;-74
2021/05/26 03:50:36;;;;;;;12.85;3.30;;;;;;;9.66;100.00;100704.22;5052600;28;20184;-72
2021/05/26 03:53:01;;;;;;;12.68;3.00;;;;;;;9.55;100.00;100704.00;5066148;28;20034;-73
2021/05/26 03:55:29;;;;;;;5.68;2.58;;;;;;;9.59;100.00;100710.91;5040253;28;20500;-73
2021/05/26 03:58:15;;;;;;;9.93;2.42;;;;;;;9.71;100.00;100698.56;5073903;28;20044;-73
2021/05/26 04:00:41;;;;;;;12.02;3.22;;;;;;;9.64;100.00;100699.88;5057020;28;20416;-73
2021/05/26 04:03:16;;;;;;;7.07;2.38;;;;;;;9.59;100.00;100705.53;5056366;28;20043;-74
2021/05/26 04:05:42;;;;;;;8.82;2.92;;;;;;;9.67;100.00;100695.22;5045744;28;20054;-73
2021/05/26 04:08:07;;;;;;;15.15;4.28;;;;;;;9.75;100.00;100700.94;5060655;28;20025;-73
2021/05/26 04:10:36;;;;;;;7.57;3.40;;;;;;;9.76;100.00;100696.47;5058540;28;20396;-73
2021/05/26 04:13:15;;;;;;;9.27;3.03;;;;;;;9.69;100.00;100690.59;5045960;28;20043;-72
2021/05/26 04:15:51;;;;;;;14.88;3.33;;;;;;;9.66;100.00;100689.94;5056993;28;20032;-72
2021/05/26 04:18:44;;;;;;;7.20;2.95;;;;;;;9.67;100.00;100691.69;5061693;28;20689;-73
2021/05/26 04:21:10;;;;;;;9.57;2.75;;;;;;;9.68;100.00;100696.94;5036433;28;20135;-74
2021/05/26 04:23:36;;;;;;;9.40;2.75;;;;;;;9.69;100.00;100685.25;5066794;28;20086;-73
2021/05/26 04:26:02;;;;;;;10.88;2.30;;;;;;;9.66;100.00;100685.44;5049296;28;20027;-74
2021/05/26 04:28:28;;;;;;;8.15;3.45;;;;;;;9.68;100.00;100682.69;5077010;28;20028;-73
2021/05/26 04:30:53;;;;;;;7.85;2.67;;;;;;;9.70;100.00;100691.47;5042477;28;20032;-72
2021/05/26 04:33:26;;;;;;;10.55;3.35;;;;;;;9.75;100.00;100686.72;5043314;28;20029;-73
2021/05/26 04:35:51;;;;;;;9.77;2.65;;;;;;;9.77;100.00;100681.25;5054293;28;20060;-73
2021/05/26 04:38:16;;;;;;;7.10;2.00;;;;;;;9.82;100.00;100684.50;5038785;28;20082;-73
2021/05/26 04:40:42;;;;;;;9.85;2.28;;;;;;;9.82;100.00;100685.34;5082802;28;20035;-73
2021/05/26 04:43:08;;;;;;;10.75;4.05;;;;;;;9.79;100.00;100674.84;5067597;28;20036;-73
2021/05/26 04:45:34;;;;;;;5.75;2.03;;;;;;;9.79;100.00;100684.69;5038009;28;20132;-73
2021/05/26 04:47:59;;;;;;;5.30;2.40;;;;;;;9.82;100.00;100684.50;5065890;28;20105;-73
2021/05/26 04:50:25;;;;;;;6.30;2.80;;;;;;;9.90;100.00;100688.44;5053967;28;20032;-73
2021/05/26 04:52:51;;;;;;;6.47;2.20;;;;;;;9.88;100.00;100686.78;5057497;28;20064;-72
2021/05/26 04:55:16;;;;;;;11.48;2.53;;;;;;;9.92;100.00;100685.66;5060117;28;20501;-73
2021/05/26 04:57:42;;;;;;;5.95;2.20;;;;;;;9.97;100.00;100694.28;5065650;28;20032;-73
2021/05/26 05:00:08;;;;;;;9.63;2.40;;;;;;;9.99;100.00;100684.34;5048828;28;20035;-73
2021/05/26 05:02:33;;;;;;;6.88;2.33;;;;;;;10.05;100.00;100681.28;5047661;28;20059;-74
2021/05/26 05:04:59;;;;;;;7.80;2.67;;;;;;;10.03;100.00;100680.50;5047772;28;20676;-73
2021/05/26 05:07:24;;;;;;;6.03;2.30;;;;;;;10.07;100.00;100673.97;5051210;28;20067;-73
2021/05/26 05:09:50;;;;;;;6.57;2.63;;;;;;;10.02;100.00;100676.94;5065087;28;20040;-73
2021/05/26 05:12:15;;;;;;;6.95;2.10;;;;;;;10.01;100.00;100669.00;5050067;28;20078;-73
2021/05/26 05:14:40;;;;;;;4.80;2.42;;;;;;;10.19;100.00;100672.34;5065584;28;20104;-74
2021/05/26 05:17:06;;;;;;;7.57;2.15;;;;;;;10.07;100.00;100671.28;5053977;28;20066;-73
2021/05/26 05:19:31;;;;;;;5.53;1.70;;;;;;;10.05;100.00;100667.88;5065816;28;20036;-74
2021/05/26 05:21:57;;;;;;;7.00;1.98;;;;;;;10.08;100.00;100660.47;5047128;28;21093;-74
2021/05/26 05:24:22;;;;;;;8.30;2.42;;;;;;;10.18;100.00;100660.81;5067581;28;20021;-74
2021/05/26 05:26:48;;;;;;;7.22;2.10;;;;;;;10.18;100.00;100665.31;5051423;28;20024;-73
2021/05/26 05:29:13;;;;;;;4.68;2.28;;;;;;;10.22;100.00;100658.78;5049079;28;20039;-74
2021/05/26 05:31:39;;;;;;;5.43;1.85;;;;;;;10.19;100.00;100665.19;5041811;28;20445;-74
2021/05/26 05:34:04;;;;;;;5.20;2.25;;;;;;;10.31;100.00;100660.84;5069279;28;20032;-73
2021/05/26 05:36:30;;;;;;;6.88;2.65;;;;;;;10.34;100.00;100658.84;5069087;28;20040;-74
2021/05/26 05:38:55;;;;;;;4.85;1.90;;;;;;;10.34;100.00;100661.53;5051178;28;20029;-73
2021/05/26 05:41:21;;;;;;;6.20;1.85;;;;;;;10.29;100.00;100668.16;5069501;28;20033;-73
2021/05/26 05:43:46;;;;;;;12.15;1.92;;;;;;;10.36;100.00;100666.81;5051233;28;20519;-73
2021/05/26 05:46:12;;;;;;;5.95;2.47;;;;;;;10.38;100.00;100660.38;5068679;28;20064;-73
2021/05/26 05:48:38;;;;;;;5.07;1.85;;;;;;;10.53;100.00;100650.47;5052849;28;20033;-71
2021/05/26 05:51:03;;;;;;;6.07;2.00;;;;;;;10.50;100.00;100651.53;5069543;28;20032;-73
2021/05/26 05:53:29;;;;;;;3.78;1.90;;;;;;;10.54;100.00;100653.06;5058345;28;20025;-73
2021/05/26 05:55:58;;;;;;;7.93;2.03;;;;;;;10.71;100.00;100654.63;5071554;28;20661;-73
2021/05/26 05:58:25;;;;;;;11.20;3.17;;;;;;;10.74;100.00;100659.78;5067534;28;20041;-73
2021/05/26 06:00:51;;;;;;;6.07;1.77;;;;;;;10.79;100.00;100652.31;5065616;28;20086;-74
2021/05/26 06:03:16;;;;;;;7.20;2.15;;;;;;;10.88;100.00;100654.38;5059214;28;20040;-73
2021/05/26 06:05:43;;;;;;;5.03;2.00;;;;;;;10.89;99.20;100663.28;5056211;28;20058;-72
2021/05/26 06:08:09;;;;;;;8.18;2.00;;;;;;;10.92;98.59;100652.34;5066774;23;20041;-74
2021/05/26 06:10:35;;;;;;;4.88;1.70;;;;;;;10.89;98.47;100655.22;5049486;28;20082;-72
2021/05/26 06:13:03;;;;;;;5.55;2.22;;;;;;;10.92;99.35;100657.72;5068006;28;20089;-71
2021/05/26 06:15:28;;;;;;;5.28;1.90;;;;;;;10.85;99.74;100656.41;5051086;28;20092;-72
2021/05/26 06:17:57;;;;;;;5.90;1.63;;;;;;;10.90;100.00;100649.78;5056314;28;20033;-72
2021/05/26 06:20:23;;;;;;;3.92;2.13;;;;;;;11.04;100.00;100651.53;5052835;28;20488;-71
2021/05/26 06:22:48;;;;;;;4.57;2.35;;;;;;;11.01;99.06;100656.22;5049016;28;20028;-71
2021/05/26 06:25:14;;;;;;;7.28;1.63;;;;;;;11.09;98.28;100649.41;5053258;28;20044;-71
2021/05/26 06:27:40;;;;;;;20.33;3.60;;;;;;;11.14;99.29;100647.25;5066800;28;20373;-71
2021/05/26 06:30:06;;;;;;;3.13;1.70;;;;;;;11.26;98.36;100657.16;5067964;28;20554;-71
2021/05/26 06:32:32;;;;;;;2.55;1.40;;;;;;;11.36;97.49;100658.25;5066952;28;20028;-71
2021/05/26 06:34:57;;;;;;;3.05;1.50;;;;;;;11.54;95.93;100658.81;5053310;28;20028;-71
2021/05/26 06:37:22;;;;;;;10.60;1.63;;;;;;;11.53;95.37;100658.94;5054287;28;20062;-71
2021/05/26 06:39:48;;;;;;;4.03;1.65;;;;;;;11.67;95.86;100656.13;5068207;28;20658;-72
2021/05/26 06:42:13;;;;;;;3.60;1.63;;;;;;;11.62;95.20;100652.91;5066559;28;20507;-71
2021/05/26 06:44:39;;;;;;;5.78;2.17;;;;;;;11.59;94.41;100658.50;5069366;28;20040;-71
2021/05/26 06:47:04;;;;;;;6.78;1.33;;;;;;;11.67;94.36;100654.31;5067301;28;20067;-72
2021/05/26 06:49:31;;;;;;;2.38;1.40;;;;;;;11.70;92.68;100655.94;5068695;28;20021;-72
2021/05/26 06:51:57;;;;;;;4.00;1.90;;;;;;;11.75;94.07;100654.66;5045469;28;20032;-71
2021/05/26 06:54:22;;;;;;;4.97;1.33;;;;;;;11.82;92.23;100644.34;5047938;28;20082;-71
2021/05/26 06:56:47;;;;;;;2.58;1.08;;;;;;;12.19;91.08;100645.25;5067509;28;20428;-71
2021/05/26 06:59:13;;;;;;;1.92;0.90;;;;;;;12.73;88.83;100653.81;5035007;28;20524;-71
2021/05/26 07:01:39;;;;;;;4.20;1.40;;;;;;;12.98;85.38;100648.31;5052384;28;20392;-71
2021/05/26 07:04:04;;;;;;;5.00;1.42;;;;;;;12.84;85.74;100640.41;5065322;28;20040;-72
2021/05/26 07:06:30;;;;;;;1.92;1.00;;;;;;;13.22;85.95;100645.63;5067336;28;20127;-72
2021/05/26 07:08:55;;;;;;;1.90;1.08;;;;;;;13.86;81.90;100646.03;5071618;28;20095;-72
2021/05/26 07:11:21;;;;;;;2.40;1.10;;;;;;;13.97;80.63;100653.25;5069238;28;20448;-71
2021/05/26 07:13:46;;;;;;;2.67;0.90;;;;;;;14.41;78.16;100653.28;5084011;28;20366;-71
2021/05/26 07:16:11;;;;;;;2.65;1.42;;;;;;;14.77;75.57;100653.94;5069121;28;20097;-71
2021/05/26 07:18:37;;;;;;;1.35;0.82;;;;;;;14.54;76.46;100654.00;5087998;28;20032;-71
2021/05/26 07:21:02;;;;;;;2.75;0.82;;;;;;;14.41;76.96;100655.13;5088231;28;20032;-72
2021/05/26 07:23:28;;;;;;;2.55;1.33;;;;;;;14.52;76.74;100653.25;5085798;28;20035;-72
2021/05/26 07:25:53;;;;;;;3.55;1.90;;;;;;;15.14;74.44;100659.84;5056726;28;20036;-72
2021/05/26 07:28:19;;;;;;;1.70;0.90;;;;;;;15.10;74.76;100651.13;5074624;28;20083;-72
2021/05/26 07:30:44;;;;;;;1.70;0.85;;;;;;;15.06;72.27;100652.34;5069281;28;20188;-72
2021/05/26 07:33:10;;;;;;;2.28;0.95;;;;;;;15.38;70.34;100655.91;5054573;28;20068;-72
2021/05/26 07:35:36;;;;;;;1.52;0.70;;;;;;;14.80;70.96;100645.59;5081775;28;20576;-72
2021/05/26 07:38:02;;;;;;;1.40;0.80;;;;;;;14.47;73.27;100636.56;5086796;28;20124;-71
2021/05/26 07:40:27;;;;;;;1.95;1.00;;;;;;;14.08;74.90;100645.16;5070269;28;20136;-72
2021/05/26 07:42:53;;;;;;;2.10;1.10;;;;;;;13.85;75.70;100638.91;5089026;28;20015;-72
2021/05/26 07:45:18;;;;;;;3.75;1.00;;;;;;;13.91;77.53;100648.34;5086761;28;20080;-71
2021/05/26 07:47:44;;;;;;;1.60;1.10;;;;;;;13.76;78.78;100645.88;5086188;28;20031;-72
2021/05/26 07:50:10;;;;;;;2.53;1.10;;;;;;;13.69;78.37;100644.66;5071954;28;20040;-72
2021/05/26 07:52:35;;;;;;;2.17;0.95;;;;;;;13.87;76.83;100638.78;5085551;28;20554;-72
2021/05/26 07:55:01;;;;;;;2.40;1.45;;;;;;;13.73;78.42;100635.34;5087385;28;20170;-72
2021/05/26 07:57:26;;;;;;;1.55;1.00;;;;;;;13.77;79.13;100635.94;5086020;28;20034;-72
2021/05/26 07:59:52;;;;;;;4.72;1.30;;;;;;;13.90;77.55;100641.22;5087096;28;20348;-72
2021/05/26 08:02:18;;;;;;;2.60;0.90;;;;;;;14.00;79.04;100632.31;5082276;28;20028;-72
2021/05/26 08:04:43;;;;;;;2.35;0.95;;;;;;;14.18;77.60;100628.13;5087772;28;20051;-72
2021/05/26 08:07:09;;;;;;;1.92;0.90;;;;;;;14.35;75.27;100624.03;5086264;28;20046;-72
2021/05/26 08:09:35;;;;;;;3.33;1.17;;;;;;;14.27;77.01;100631.91;5069391;28;20131;-72
2021/05/26 08:12:01;;;;;;;3.05;1.00;;;;;;;14.30;75.80;100628.97;5084906;28;20279;-72
2021/05/26 08:14:27;;;;;;;1.92;1.13;;;;;;;13.99;77.10;100621.63;5081528;28;20082;-72
2021/05/26 08:16:52;;;;;;;3.65;1.08;;;;;;;15.15;74.41;100621.88;5082850;28;20176;-72
2021/05/26 08:19:18;;;;;;;3.45;0.80;;;;;;;16.30;71.54;100627.09;5068022;28;20128;-72
2021/05/26 08:21:43;;;;;;;2.25;0.98;;;;;;;17.15;65.95;100630.16;5085810;28;20032;-72
2021/05/26 08:24:12;;;;;;;1.63;0.90;;;;;;;17.74;63.23;100627.22;5084863;28;20024;-72
2021/05/26 08:26:37;;;;;;;2.60;0.88;;;;;;;17.70;58.67;100623.09;5100737;28;20038;-72
2021/05/26 08:29:04;;;;;;;2.42;0.85;;;;;;;17.08;61.10;100620.00;5086886;28;20040;-72
2021/05/26 08:31:30;;;;;;;0.88;0.43;;;;;;;16.47;62.98;100621.03;5082920;28;20032;-72
2021/05/26 08:33:56;;;;;;;10.20;1.00;;;;;;;16.11;64.39;100617.03;5084449;28;20123;-72
2021/05/26 08:36:21;;;;;;;1.02;0.50;;;;;;;16.80;61.69;100609.00;5087020;28;20118;-73
2021/05/26 08:38:47;;;;;;;2.33;0.70;;;;;;;17.46;60.22;100614.56;5085744;28;20043;-73
2021/05/26 08:41:12;;;;;;;1.70;0.70;;;;;;;17.52;61.82;100613.97;5086986;28;20116;-72
2021/05/26 08:43:40;;;;;;;1.15;0.65;;;;;;;17.29;59.99;100604.41;5086558;28;20059;-73
2021/05/26 08:46:08;;;;;;;1.73;0.70;;;;;;;16.86;61.76;100594.88;5085420;28;20040;-72
2021/05/26 08:48:34;;;;;;;2.00;1.05;;;;;;;16.36;62.85;100606.72;5075690;28;20046;-72
2021/05/26 08:51:01;;;;;;;2.10;0.77;;;;;;;16.23;65.60;100598.00;5087621;28;20562;-72
2021/05/26 08:53:27;;;;;;;1.75;0.90;;;;;;;16.09;66.69;100602.81;5085196;28;20040;-72
2021/05/26 08:55:53;;;;;;;1.33;0.68;;;;;;;16.02;68.18;100593.50;5086663;28;20031;-72
2021/05/26 08:58:19;;;;;;;2.05;0.90;;;;;;;15.83;67.77;100596.13;5088033;28;20075;-72
2021/05/26 09:00:45;;;;;;;2.45;0.90;;;;;;;15.67;69.12;100596.63;5091198;28;20114;-72
2021/05/26 09:03:10;;;;;;;1.52;0.88;;;;;;;15.71;71.12;100598.06;5091612;28;20040;-72
2021/05/26 09:05:36;;;;;;;1.83;0.98;;;;;;;15.75;67.76;100593.22;5075648;28;20044;-72
2021/05/26 09:08:33;;;;;;;2.53;0.93;;;;;;;15.67;65.78;100593.94;5098479;28;20039;-72
2021/05/26 09:11:00;;;;;;;2.13;0.57;;;;;;;15.63;66.92;100587.06;5039610;28;20139;-72
2021/05/26 09:13:35;;;;;;;1.00;0.70;;;;;;;15.55;66.24;100586.88;5090427;28;20067;-72
2021/05/26 09:16:22;;;;;;;3.47;0.57;;;;;;;15.71;65.55;100586.38;5104499;28;20444;-72
2021/05/26 09:19:02;;;;;;;2.25;0.70;;;;;;;15.52;66.90;100575.41;5090303;28;20046;-72
2021/05/26 09:21:45;;;;;;;1.25;0.90;;;;;;;15.49;67.11;100575.72;5069758;28;20038;-72
2021/05/26 09:24:20;;;;;;;4.60;1.08;;;;;;;15.59;67.74;100576.63;5080465;28;20040;-72
2021/05/26 09:27:06;;;;;;;1.67;0.70;;;;;;;16.23;66.31;100576.34;5080089;28;20097;-72
2021/05/26 09:29:36;;;;;;;1.52;0.68;;;;;;;16.43;65.09;100575.38;5080072;28;20095;-72
2021/05/26 09:32:23;;;;;;;0.60;0.57;;;;;;;16.56;63.40;100573.25;5099004;28;20038;-72
2021/05/26 09:34:57;;;;;;;0.95;0.50;;;;;;;16.45;64.80;100568.84;5073745;28;20519;-72
2021/05/26 09:37:27;;;;;;;3.28;0.57;;;;;;;16.73;61.14;100569.03;5103207;28;20036;-72
2021/05/26 09:39:54;;;;;;;0.57;0.38;;;;;;;17.02;61.78;100575.34;5099552;28;20679;-72
2021/05/26 09:42:41;;;;;;;0.70;0.50;;;;;;;17.10;60.69;100569.16;5077675;28;20074;-73
2021/05/26 09:45:17;;;;;;;0.55;0.55;;;;;;;16.91;58.97;100568.19;5075285;28;20565;-73
2021/05/26 09:47:51;;;;;;;0.55;0.40;;;;;;;16.80;61.32;100565.63;5086177;28;20036;-72
2021/05/26 09:50:24;;;;;;;0.43;0.40;;;;;;;16.74;62.05;100568.91;5086581;28;20048;-72
2021/05/26 09:53:00;;;;;;;0.88;0.40;;;;;;;16.72;61.42;100570.91;5092574;28;20132;-72
2021/05/26 09:55:45;;;;;;;1.67;0.40;;;;;;;16.53;63.93;100570.84;5086941;28;20055;-72
2021/05/26 09:58:12;;;;;;;0.60;0.55;;;;;;;16.60;63.28;100566.63;5081246;28;20044;-72
2021/05/26 10:00:41;;;;;;;2.58;0.60;;;;;;;17.02;62.83;100563.63;5092709;28;20047;-72
2021/05/26 10:03:07;;;;;;;1.00;0.63;;;;;;;17.31;61.31;100564.44;5074312;28;20112;-73
2021/05/26 10:05:34;;;;;;;2.08;1.02;;;;;;;17.32;60.18;100568.88;5069958;28;20296;-73
2021/05/26 10:08:19;;;;;;;0.70;0.50;;;;;;;17.54;59.81;100573.94;5087808;28;20047;-73
2021/05/26 10:10:58;;;;;;;1.60;0.50;;;;;;;17.89;58.59;100569.75;5078069;28;20032;-73
2021/05/26 10:13:26;;;;;;;2.63;0.60;;;;;;;18.10;56.85;100570.34;5058788;28;20032;-73
2021/05/26 10:15:54;;;;;;;0.40;0.40;;;;;;;17.70;57.27;100571.53;5073042;28;20027;-73
2021/05/26 10:18:20;;;;;;;0.85;0.50;;;;;;;17.36;57.71;100567.56;5094718;28;20035;-73
2021/05/26 10:20:46;;;;;;;2.33;1.15;;;;;;;17.29;60.60;100566.44;5089996;28;20349;-73
2021/05/26 10:23:19;;;;;;;3.25;0.60;;;;;;;17.15;60.53;100569.63;5092400;28;20039;-73
2021/05/26 10:25:47;;;;;;;1.40;0.60;;;;;;;17.20;60.73;100572.75;5089191;28;20024;-73
2021/05/26 10:28:30;;;;;;;1.95;0.80;;;;;;;17.47;61.25;100575.53;5087728;28;20020;-73
2021/05/26 10:30:56;;;;;;;;;;;;;;;17.45;59.53;100574.00;5072210;28;20039;-73
2021/05/26 10:33:42;;;;;;;1.55;0.50;;;;;;;17.45;57.37;100566.72;5092797;28;19916;-73
2021/05/26 10:36:09;;;;;;;4.03;0.60;;;;;;;17.65;59.14;100562.94;5087653;28;20602;-73
2021/05/26 10:38:53;;;;;;;2.08;1.02;;;;;;;18.02;61.91;100562.13;5085349;28;20074;-74
2021/05/26 10:41:18;;;;;;;1.23;0.63;;;;;;;18.20;59.65;100563.03;5066984;28;20468;-73
2021/05/26 10:43:51;;;;;;;1.38;0.70;;;;;;;18.09;59.01;100563.19;5076061;28;20077;-74
2021/05/26 10:46:36;;;;;;;;;;;;;;;17.91;58.18;100562.28;5071464;28;20038;-72
2021/05/26 10:49:06;;;;;;;2.60;0.70;;;;;;;17.90;59.97;100571.47;5076059;28;19916;-73
2021/05/26 10:51:53;;;;;;;1.80;0.70;;;;;;;17.94;59.74;100567.44;5088666;28;20039;-73
2021/05/26 10:54:41;;;;;;;4.25;0.70;;;;;;;17.98;59.49;100571.56;5084974;28;20035;-74
2021/05/26 10:57:08;;;;;;;1.15;0.93;;;;;;;17.88;58.38;100571.59;5067679;28;20032;-73
2021/05/26 10:59:34;;;;;;;1.42;1.00;;;;;;;18.05;59.40;100575.38;5063034;28;20016;-73
2021/05/26 11:02:07;;;;;;;0.82;0.70;;;;;;;17.95;59.25;100577.31;5065427;28;20588;-73
2021/05/26 11:04:34;;;;;;;1.77;0.70;;;;;;;18.28;58.59;100573.97;5069118;28;20032;-73
2021/05/26 11:07:20;;;;;;;4.13;0.80;;;;;;;18.33;57.22;100571.66;5070905;28;20048;-73
2021/05/26 11:10:04;;;;;;;0.90;0.60;;;;;;;18.14;59.00;100577.22;5071239;28;20048;-73
2021/05/26 11:12:55;;;;;;;2.67;0.90;;;;;;;18.12;59.99;100579.22;5068534;28;20092;-73
2021/05/26 11:15:39;;;;;;;1.85;0.90;;;;;;;17.99;59.39;100586.84;5080402;28;20043;-74
2021/05/26 11:18:13;;;;;;;2.42;0.90;;;;;;;17.89;55.72;100586.03;5065311;28;20233;-73
2021/05/26 11:20:39;;;;;;;2.35;0.85;;;;;;;17.79;57.25;100581.47;5069018;28;20028;-73
2021/05/26 11:23:11;;;;;;;1.33;0.60;;;;;;;17.84;58.80;100585.63;5085773;28;20054;-73
2021/05/26 11:25:37;;;;;;;1.33;0.77;;;;;;;17.83;60.28;100575.78;5080814;28;20590;-74
2021/05/26 11:28:03;;;;;;;1.30;0.77;;;;;;;17.93;59.11;100577.44;5068649;28;20103;-73
2021/05/26 11:30:29;;;;;;;1.67;0.73;;;;;;;17.93;58.56;100572.00;5067488;28;20032;-73